createdAt,value
2022-10-29T00:02:30.684Z,11.43
2022-10-29T00:06:12.447Z,10.73
2022-10-29T00:09:54.213Z,12.38
2022-10-29T00:13:36.184Z,5.43
2022-10-29T00:17:17.861Z,9.07
2022-10-29T00:21:05.838Z,7.35
2022-10-29T00:24:47.575Z,10.25
2022-10-29T00:28:29.339Z,11.40
2022-10-29T00:32:11.401Z,13.32
2022-10-29T00:36:07.037Z,13.00
2022-10-29T00:39:48.698Z,8.25
2022-10-29T00:44:08.151Z,10.23
2022-10-29T00:47:51.048Z,9.65
2022-10-29T00:51:33.964Z,8.37
2022-10-29T00:55:15.775Z,10.43
2022-10-29T00:58:57.746Z,9.18
2022-10-29T01:02:39.807Z,9.25
2022-10-29T01:06:22.314Z,10.90
2022-10-29T01:10:04.321Z,12.02
2022-10-29T01:13:58.630Z,17.83
2022-10-29T01:17:49.282Z,10.13
2022-10-29T01:21:39.230Z,12.73
2022-10-29T01:25:39.380Z,15.25
2022-10-29T01:29:26.809Z,14.00
2022-10-29T01:33:33.127Z,11.15
2022-10-29T01:37:22.471Z,8.50
2022-10-29T01:41:24.755Z,8.98
2022-10-29T01:45:20.140Z,9.35
2022-10-29T01:49:04.325Z,14.75
2022-10-29T01:52:46.404Z,10.80
2022-10-29T01:56:28.067Z,10.15
2022-10-29T02:00:12.103Z,6.30
2022-10-29T02:04:14.945Z,9.65
2022-10-29T02:08:14.760Z,10.70
2022-10-29T02:12:25.568Z,11.38
2022-10-29T02:16:07.588Z,7.60
2022-10-29T02:19:49.262Z,10.57
2022-10-29T02:23:32.241Z,8.88
2022-10-29T02:27:13.969Z,6.82
2022-10-29T02:30:55.837Z,8.50
2022-10-29T02:34:37.501Z,6.47
2022-10-29T02:38:19.269Z,9.70
2022-10-29T02:42:02.159Z,9.93
2022-10-29T02:45:43.844Z,4.93
2022-10-29T02:49:25.571Z,9.60
2022-10-29T02:53:08.485Z,7.38
2022-10-29T02:56:50.151Z,6.27
2022-10-29T03:00:33.005Z,10.40
2022-10-29T03:04:14.792Z,7.20
2022-10-29T03:07:56.465Z,5.07
2022-10-29T03:11:38.419Z,13.18
2022-10-29T03:15:20.100Z,7.32
2022-10-29T03:19:01.909Z,7.55
2022-10-29T03:22:43.860Z,6.55
2022-10-29T03:26:25.527Z,3.80
2022-10-29T03:30:08.158Z,7.50
2022-10-29T03:33:50.413Z,4.13
2022-10-29T03:37:32.086Z,2.65
2022-10-29T03:41:14.117Z,5.22
2022-10-29T03:44:55.783Z,3.28
2022-10-29T03:48:37.766Z,4.63
2022-10-29T03:52:20.944Z,4.13
2022-10-29T03:56:02.851Z,3.08
2022-10-29T03:59:47.115Z,2.83
2022-10-29T04:03:32.736Z,2.53
2022-10-29T04:07:14.501Z,3.77
2022-10-29T04:10:56.431Z,2.15
2022-10-29T04:14:42.874Z,2.97
2022-10-29T04:18:27.196Z,2.88
2022-10-29T04:34:00.538Z,3.47
2022-10-29T04:37:42.402Z,3.28
2022-10-29T04:41:24.351Z,4.95
2022-10-29T04:45:06.830Z,6.40
2022-10-29T04:48:48.532Z,6.05
2022-10-29T04:52:50.275Z,6.00
2022-10-29T04:56:32.016Z,5.40
2022-10-29T05:00:17.863Z,4.65
2022-10-29T05:04:01.833Z,6.20
2022-10-29T05:07:43.546Z,5.35
2022-10-29T05:11:25.433Z,7.40
2022-10-29T05:15:07.331Z,7.03
2022-10-29T05:18:49.017Z,5.32
2022-10-29T05:22:50.897Z,8.20
2022-10-29T05:26:32.705Z,4.78
2022-10-29T05:30:14.467Z,8.85
2022-10-29T05:33:58.437Z,5.93
2022-10-29T05:37:40.098Z,7.43
2022-10-29T05:41:21.965Z,10.32
2022-10-29T05:45:03.884Z,10.35
2022-10-29T05:48:45.571Z,11.85
2022-10-29T05:52:31.337Z,9.82
2022-10-29T05:56:13.055Z,12.18
2022-10-29T05:59:54.861Z,9.05
2022-10-29T06:03:38.323Z,14.05
2022-10-29T06:07:20.015Z,7.15
2022-10-29T06:11:02.891Z,12.05
2022-10-29T06:14:44.604Z,13.33
2022-10-29T06:18:27.413Z,10.20
2022-10-29T06:22:11.275Z,9.30
2022-10-29T06:25:54.114Z,9.85
2022-10-29T06:29:35.803Z,13.98
2022-10-29T06:33:18.290Z,6.25
2022-10-29T06:36:59.948Z,14.65
2022-10-29T06:40:42.346Z,11.23
2022-10-29T06:44:24.013Z,8.48
2022-10-29T06:48:06.159Z,11.82
2022-10-29T06:51:48.228Z,16.88
2022-10-29T06:55:30.092Z,11.43
2022-10-29T06:59:11.753Z,15.30
2022-10-29T07:02:54.078Z,10.20
2022-10-29T07:06:36.060Z,11.65
2022-10-29T07:10:17.794Z,16.17
2022-10-29T07:14:00.131Z,12.45
2022-10-29T07:17:42.061Z,9.90
2022-10-29T07:21:25.062Z,12.30
2022-10-29T07:25:07.395Z,15.77
2022-10-29T07:28:49.052Z,13.82
2022-10-29T07:32:31.041Z,11.85
2022-10-29T07:36:12.697Z,10.75
2022-10-29T07:39:54.659Z,15.13
2022-10-29T07:43:36.424Z,15.88
2022-10-29T07:47:18.270Z,10.82
2022-10-29T07:51:00.765Z,10.10
2022-10-29T07:54:42.434Z,10.10
2022-10-29T07:58:24.329Z,12.43
2022-10-29T08:02:09.662Z,12.88
2022-10-29T08:05:55.419Z,13.23
2022-10-29T08:09:38.280Z,11.57
2022-10-29T08:13:20.274Z,14.80
2022-10-29T08:17:02.010Z,9.95
2022-10-29T08:20:44.261Z,13.07
2022-10-29T08:24:25.932Z,8.90
2022-10-29T08:28:08.690Z,13.48
2022-10-29T08:31:50.417Z,11.80
2022-10-29T08:35:32.392Z,10.82
2022-10-29T08:39:14.056Z,15.90
2022-10-29T08:43:15.582Z,14.93
2022-10-29T08:47:23.787Z,12.48
2022-10-29T08:51:25.201Z,10.48
2022-10-29T08:55:20.910Z,47.60
2022-10-29T08:59:11.951Z,18.60
2022-10-29T09:02:57.238Z,16.38
2022-10-29T09:06:44.353Z,14.60
2022-10-29T09:10:28.858Z,12.20
2022-10-29T09:14:41.880Z,11.95
2022-10-29T09:18:50.226Z,12.40
2022-10-29T09:23:04.097Z,10.57
2022-10-29T09:27:08.139Z,10.50
2022-10-29T09:31:07.800Z,10.18
2022-10-29T09:34:50.944Z,12.68
2022-10-29T09:38:34.903Z,17.55
2022-10-29T09:42:43.436Z,8.70
2022-10-29T09:46:58.300Z,8.43
2022-10-29T09:50:46.788Z,13.30
2022-10-29T09:54:29.573Z,15.13
2022-10-29T09:58:18.725Z,10.98
2022-10-29T10:02:00.726Z,8.70
2022-10-29T10:06:04.397Z,13.18
2022-10-29T10:10:03.673Z,24.85
2022-10-29T10:13:57.663Z,15.65
2022-10-29T10:18:18.233Z,16.67
2022-10-29T10:22:04.685Z,16.40
2022-10-29T10:25:46.444Z,10.93
2022-10-29T10:29:28.322Z,12.88
2022-10-29T10:33:28.801Z,17.10
2022-10-29T10:37:10.446Z,15.23
2022-10-29T10:41:00.622Z,22.10
2022-10-29T10:44:52.222Z,17.55
2022-10-29T10:52:26.837Z,14.93
2022-10-29T10:56:16.270Z,11.80
2022-10-29T10:59:57.913Z,11.07
2022-10-29T11:03:48.367Z,13.10
2022-10-29T11:07:31.924Z,14.27
2022-10-29T11:11:13.630Z,9.90
2022-10-29T11:15:00.319Z,9.80
2022-10-29T11:18:42.815Z,10.48
2022-10-29T11:22:45.186Z,16.98
2022-10-29T11:26:41.698Z,29.20
2022-10-29T11:30:23.445Z,16.42
2022-10-29T11:34:23.784Z,11.45
2022-10-29T11:38:26.348Z,13.63
2022-10-29T11:42:10.112Z,16.23
2022-10-29T11:45:54.623Z,7.93
2022-10-29T11:49:49.813Z,9.68
2022-10-29T11:53:44.652Z,10.85
2022-10-29T11:57:29.289Z,12.10
2022-10-29T12:01:44.085Z,10.75
2022-10-29T12:05:30.461Z,15.20
2022-10-29T12:09:34.480Z,9.23
2022-10-29T12:13:39.614Z,9.05
2022-10-29T12:17:26.969Z,13.30
2022-10-29T12:21:37.668Z,8.05
2022-10-29T12:25:28.471Z,10.45
2022-10-29T12:29:31.871Z,7.82
2022-10-29T12:33:19.597Z,8.82
2022-10-29T12:37:42.554Z,6.75
2022-10-29T12:41:39.317Z,13.25
2022-10-29T12:45:48.086Z,12.05
2022-10-29T12:49:47.588Z,9.88
2022-10-29T12:54:03.222Z,14.55
2022-10-29T12:57:44.890Z,9.07
2022-10-29T13:01:50.143Z,12.48
2022-10-29T13:05:40.156Z,15.38
2022-10-29T13:09:22.583Z,18.83
2022-10-29T13:13:17.720Z,11.52
2022-10-29T13:16:59.481Z,18.42
2022-10-29T13:20:48.636Z,12.85
2022-10-29T13:24:30.449Z,15.95
2022-10-29T13:28:37.983Z,15.18
2022-10-29T13:32:35.538Z,13.55
2022-10-29T13:36:17.251Z,17.73
2022-10-29T13:40:33.783Z,15.48
2022-10-29T13:44:26.290Z,9.88
2022-10-29T13:48:13.372Z,19.27
2022-10-29T13:52:03.186Z,15.23
2022-10-29T13:55:44.846Z,14.88
2022-10-29T13:59:36.045Z,13.95
2022-10-29T14:03:25.211Z,15.73
2022-10-29T14:07:12.860Z,11.50
2022-10-29T14:11:00.707Z,15.52
2022-10-29T14:15:06.828Z,16.35
2022-10-29T14:18:49.335Z,13.73
2022-10-29T14:22:35.650Z,13.80
2022-10-29T14:26:17.394Z,11.88
2022-10-29T14:30:16.822Z,14.23
2022-10-29T14:33:59.831Z,14.05
2022-10-29T14:37:41.518Z,12.20
2022-10-29T14:41:23.522Z,7.47
2022-10-29T14:45:07.604Z,8.38
2022-10-29T14:48:56.309Z,12.43
2022-10-29T14:52:39.597Z,9.85
2022-10-29T14:56:21.318Z,12.55
2022-10-29T15:00:04.926Z,12.90
2022-10-29T15:03:48.063Z,10.55
2022-10-29T15:07:34.124Z,10.57
2022-10-29T15:11:36.995Z,6.35
2022-10-29T15:15:18.702Z,10.32
2022-10-29T15:19:00.592Z,15.05
2022-10-29T15:22:42.806Z,12.63
2022-10-29T15:26:24.549Z,6.47
2022-10-29T15:30:06.797Z,9.50
2022-10-29T15:33:52.530Z,13.77
2022-10-29T15:37:44.061Z,5.40
2022-10-29T15:41:37.352Z,8.45
2022-10-29T15:45:20.221Z,5.68
2022-10-29T15:49:01.893Z,10.48
2022-10-29T15:52:48.893Z,8.38
2022-10-29T15:56:30.553Z,7.43
2022-10-29T16:00:12.865Z,9.57
2022-10-29T16:03:54.803Z,7.55
2022-10-29T16:07:36.581Z,10.55
2022-10-29T16:11:22.365Z,8.52
2022-10-29T16:15:04.217Z,8.23
2022-10-29T16:18:46.338Z,8.13
2022-10-29T16:22:29.511Z,11.70
2022-10-29T16:26:15.426Z,11.10
2022-10-29T16:29:57.108Z,7.47
2022-10-29T16:33:40.885Z,9.77
2022-10-29T16:37:22.633Z,9.82
2022-10-29T16:41:05.557Z,9.23
2022-10-29T16:44:47.223Z,10.75
2022-10-29T16:48:28.876Z,15.82
2022-10-29T16:52:12.795Z,13.60
2022-10-29T16:55:56.831Z,12.35
2022-10-29T16:59:38.496Z,16.23
2022-10-29T17:03:21.233Z,10.23
2022-10-29T17:07:03.016Z,13.93
2022-10-29T17:10:44.825Z,15.00
2022-10-29T17:14:26.504Z,9.82
2022-10-29T17:18:08.235Z,14.23
2022-10-29T17:21:51.369Z,12.07
2022-10-29T17:25:33.032Z,14.88
2022-10-29T17:29:14.701Z,14.02
2022-10-29T17:32:57.688Z,13.32
2022-10-29T17:36:43.164Z,12.60
2022-10-29T17:40:24.850Z,16.38
2022-10-29T17:44:06.773Z,18.40
2022-10-29T17:47:48.682Z,22.42
2022-10-29T17:51:30.584Z,23.63
2022-10-29T17:55:12.266Z,14.65
2022-10-29T17:58:53.949Z,13.85
2022-10-29T18:02:37.354Z,15.43
2022-10-29T18:06:19.068Z,13.93
2022-10-29T18:10:00.756Z,16.45
2022-10-29T18:13:43.221Z,14.68
2022-10-29T18:17:25.041Z,17.92
2022-10-29T18:21:08.561Z,20.17
2022-10-29T18:24:50.237Z,16.42
2022-10-29T18:28:32.345Z,16.27
2022-10-29T18:32:15.498Z,19.63
2022-10-29T18:35:57.203Z,18.00
2022-10-29T18:39:39.138Z,22.83
2022-10-29T18:43:22.496Z,19.90
2022-10-29T18:47:04.234Z,17.38
2022-10-29T18:50:47.113Z,23.33
2022-10-29T18:54:28.789Z,26.70
2022-10-29T18:58:10.517Z,18.90
2022-10-29T19:01:52.413Z,15.70
2022-10-29T19:05:35.703Z,18.70
2022-10-29T19:09:17.389Z,16.48
2022-10-29T19:13:00.137Z,17.70
2022-10-29T19:16:41.883Z,19.83
2022-10-29T19:20:23.571Z,22.08
2022-10-29T19:24:05.949Z,17.77
2022-10-29T19:27:47.938Z,27.42
2022-10-29T19:31:31.183Z,26.60
2022-10-29T19:35:12.917Z,31.42
2022-10-29T19:38:54.835Z,22.38
2022-10-29T19:42:36.698Z,23.60
2022-10-29T19:46:22.874Z,20.63
2022-10-29T19:50:05.422Z,15.02
2022-10-29T19:54:07.997Z,26.10
2022-10-29T19:57:49.697Z,24.42
2022-10-29T20:01:31.590Z,20.60
2022-10-29T20:05:13.277Z,18.20
2022-10-29T20:08:55.021Z,21.45
2022-10-29T20:12:36.885Z,21.08
2022-10-29T20:16:19.795Z,23.58
2022-10-29T20:20:01.643Z,18.70
2022-10-29T20:23:44.684Z,19.63
2022-10-29T20:27:26.414Z,23.80
2022-10-29T20:31:18.188Z,23.95
2022-10-29T20:34:59.837Z,20.75
2022-10-29T20:38:41.705Z,16.10
2022-10-29T20:42:24.528Z,22.42
2022-10-29T20:46:06.403Z,16.20
2022-10-29T20:49:48.101Z,17.83
2022-10-29T20:53:29.958Z,19.13
2022-10-29T20:57:11.623Z,21.17
2022-10-29T21:00:54.523Z,24.88
2022-10-29T21:04:36.249Z,25.45
2022-10-29T21:08:17.984Z,18.30
2022-10-29T21:11:59.835Z,20.10
2022-10-29T21:15:41.534Z,21.92
2022-10-29T21:19:24.073Z,23.20
2022-10-29T21:23:05.920Z,23.50
2022-10-29T21:26:47.652Z,18.60
2022-10-29T21:30:29.548Z,18.58
2022-10-29T21:34:11.276Z,17.63
2022-10-29T21:37:52.935Z,18.20
2022-10-29T21:41:34.884Z,20.80
2022-10-29T21:45:16.695Z,15.18
2022-10-29T21:48:58.366Z,14.80
2022-10-29T21:52:41.189Z,17.95
2022-10-29T21:56:22.938Z,13.83
2022-10-29T22:00:06.420Z,18.33
2022-10-29T22:03:48.205Z,15.82
2022-10-29T22:07:29.893Z,17.52
2022-10-29T22:11:12.125Z,18.23
2022-10-29T22:14:53.832Z,19.70
2022-10-29T22:18:35.837Z,16.73
2022-10-29T22:22:17.746Z,20.95
2022-10-29T22:25:59.590Z,13.85
2022-10-29T22:29:41.262Z,20.45
2022-10-29T22:33:23.177Z,16.15
2022-10-29T22:37:04.892Z,20.00
2022-10-29T22:40:46.858Z,19.73
2022-10-29T22:44:28.525Z,20.38
2022-10-29T22:48:10.184Z,16.80
2022-10-29T22:51:53.851Z,17.05
2022-10-29T22:55:37.440Z,20.92
2022-10-29T22:59:19.099Z,13.27
2022-10-29T23:03:01.110Z,15.20
2022-10-29T23:06:42.873Z,15.90
2022-10-29T23:10:24.561Z,23.02
2022-10-29T23:14:06.339Z,19.23
2022-10-29T23:17:48.035Z,15.93
2022-10-29T23:21:30.129Z,20.60
2022-10-29T23:25:11.796Z,18.38
2022-10-29T23:28:53.577Z,20.00
2022-10-29T23:32:35.324Z,16.67
2022-10-29T23:36:17.602Z,13.05
2022-10-29T23:39:59.340Z,21.92
2022-10-29T23:43:41.103Z,17.98
2022-10-29T23:47:22.876Z,19.10
2022-10-29T23:51:04.831Z,18.05
2022-10-29T23:54:46.505Z,21.48
2022-10-29T23:58:28.225Z,17.98
